sensor_id;sensor_type;location;lat;lon;timestamp;P1;durP1;ratioP1;P2;durP2;ratioP2
579;SDS011;276;48.392;9.950;2022-12-18T00:01:29;37.10;;;25.30;;
579;SDS011;276;48.392;9.950;2022-12-18T00:03:57;34.17;;;26.30;;
579;SDS011;276;48.392;9.950;2022-12-18T00:06:25;34.73;;;24.47;;
579;SDS011;276;48.392;9.950;2022-12-18T00:08:51;34.67;;;26.23;;
579;SDS011;276;48.392;9.950;2022-12-18T00:11:21;37.07;;;25.60;;
579;SDS011;276;48.392;9.950;2022-12-18T00:13:49;41.80;;;27.80;;
579;SDS011;276;48.392;9.950;2022-12-18T00:16:17;45.10;;;29.23;;
579;SDS011;276;48.392;9.950;2022-12-18T00:18:45;37.40;;;25.30;;
579;SDS011;276;48.392;9.950;2022-12-18T00:21:14;38.10;;;29.03;;
579;SDS011;276;48.392;9.950;2022-12-18T00:23:43;44.33;;;28.40;;
579;SDS011;276;48.392;9.950;2022-12-18T00:26:10;40.90;;;27.37;;
579;SDS011;276;48.392;9.950;2022-12-18T00:28:41;37.33;;;25.60;;
579;SDS011;276;48.392;9.950;2022-12-18T00:31:11;38.90;;;28.87;;
579;SDS011;276;48.392;9.950;2022-12-18T00:33:41;37.13;;;27.50;;
579;SDS011;276;48.392;9.950;2022-12-18T00:36:09;42.33;;;28.07;;
579;SDS011;276;48.392;9.950;2022-12-18T00:38:37;44.07;;;27.30;;
579;SDS011;276;48.392;9.950;2022-12-18T00:41:05;44.67;;;28.13;;
579;SDS011;276;48.392;9.950;2022-12-18T00:43:32;45.83;;;30.70;;
579;SDS011;276;48.392;9.950;2022-12-18T00:46:02;47.80;;;30.07;;
579;SDS011;276;48.392;9.950;2022-12-18T00:48:31;47.90;;;30.23;;
579;SDS011;276;48.392;9.950;2022-12-18T00:50:57;44.10;;;28.50;;
579;SDS011;276;48.392;9.950;2022-12-18T00:53:25;45.63;;;29.50;;
579;SDS011;276;48.392;9.950;2022-12-18T00:55:51;45.80;;;29.30;;
579;SDS011;276;48.392;9.950;2022-12-18T00:58:19;53.73;;;31.97;;
579;SDS011;276;48.392;9.950;2022-12-18T01:00:44;47.03;;;30.37;;
579;SDS011;276;48.392;9.950;2022-12-18T01:03:12;44.27;;;31.37;;
579;SDS011;276;48.392;9.950;2022-12-18T01:05:40;44.00;;;27.37;;
579;SDS011;276;48.392;9.950;2022-12-18T01:08:08;50.97;;;31.67;;
579;SDS011;276;48.392;9.950;2022-12-18T01:10:36;42.00;;;27.83;;
579;SDS011;276;48.392;9.950;2022-12-18T01:13:05;37.57;;;25.93;;
579;SDS011;276;48.392;9.950;2022-12-18T01:15:31;48.30;;;30.33;;
579;SDS011;276;48.392;9.950;2022-12-18T01:17:59;49.57;;;31.67;;
579;SDS011;276;48.392;9.950;2022-12-18T01:20:27;41.30;;;30.33;;
579;SDS011;276;48.392;9.950;2022-12-18T01:22:52;37.80;;;27.97;;
579;SDS011;276;48.392;9.950;2022-12-18T01:25:18;44.97;;;29.40;;
579;SDS011;276;48.392;9.950;2022-12-18T01:27:44;40.73;;;26.83;;
579;SDS011;276;48.392;9.950;2022-12-18T01:30:11;42.90;;;27.57;;
579;SDS011;276;48.392;9.950;2022-12-18T01:32:37;34.07;;;24.90;;
579;SDS011;276;48.392;9.950;2022-12-18T01:35:05;40.43;;;27.83;;
579;SDS011;276;48.392;9.950;2022-12-18T01:37:31;43.17;;;28.07;;
579;SDS011;276;48.392;9.950;2022-12-18T01:39:59;43.97;;;27.13;;
579;SDS011;276;48.392;9.950;2022-12-18T01:42:24;37.83;;;27.50;;
579;SDS011;276;48.392;9.950;2022-12-18T01:50:15;42.00;;;29.10;;
579;SDS011;276;48.392;9.950;2022-12-18T01:52:47;45.43;;;30.13;;
579;SDS011;276;48.392;9.950;2022-12-18T01:55:20;41.33;;;29.60;;
579;SDS011;276;48.392;9.950;2022-12-18T01:57:50;52.93;;;30.60;;
579;SDS011;276;48.392;9.950;2022-12-18T02:00:19;43.87;;;29.70;;
579;SDS011;276;48.392;9.950;2022-12-18T02:02:47;46.27;;;29.73;;
579;SDS011;276;48.392;9.950;2022-12-18T02:05:22;49.40;;;32.27;;
579;SDS011;276;48.392;9.950;2022-12-18T02:10:31;46.93;;;32.00;;
579;SDS011;276;48.392;9.950;2022-12-18T02:13:46;54.27;;;33.57;;
579;SDS011;276;48.392;9.950;2022-12-18T02:27:20;48.23;;;30.43;;
579;SDS011;276;48.392;9.950;2022-12-18T02:29:51;48.13;;;31.40;;
579;SDS011;276;48.392;9.950;2022-12-18T02:32:24;42.43;;;30.73;;
579;SDS011;276;48.392;9.950;2022-12-18T02:34:54;43.60;;;30.20;;
579;SDS011;276;48.392;9.950;2022-12-18T02:37:22;42.63;;;29.37;;
579;SDS011;276;48.392;9.950;2022-12-18T02:39:49;45.03;;;28.27;;
579;SDS011;276;48.392;9.950;2022-12-18T02:42:20;36.40;;;26.77;;
579;SDS011;276;48.392;9.950;2022-12-18T02:44:47;45.30;;;28.80;;
579;SDS011;276;48.392;9.950;2022-12-18T02:47:17;40.60;;;27.30;;
579;SDS011;276;48.392;9.950;2022-12-18T02:55:03;50.53;;;30.73;;
579;SDS011;276;48.392;9.950;2022-12-18T03:00:25;41.30;;;29.03;;
579;SDS011;276;48.392;9.950;2022-12-18T03:03:02;40.07;;;28.47;;
579;SDS011;276;48.392;9.950;2022-12-18T03:05:39;41.97;;;27.53;;
579;SDS011;276;48.392;9.950;2022-12-18T03:08:17;42.93;;;28.67;;
579;SDS011;276;48.392;9.950;2022-12-18T03:10:48;46.17;;;27.67;;
579;SDS011;276;48.392;9.950;2022-12-18T03:16:22;44.93;;;27.10;;
579;SDS011;276;48.392;9.950;2022-12-18T03:19:02;40.77;;;25.40;;
579;SDS011;276;48.392;9.950;2022-12-18T03:22:08;42.53;;;27.27;;
579;SDS011;276;48.392;9.950;2022-12-18T03:24:28;41.83;;;29.33;;
579;SDS011;276;48.392;9.950;2022-12-18T03:26:59;48.43;;;30.73;;
579;SDS011;276;48.392;9.950;2022-12-18T03:29:29;44.17;;;28.33;;
579;SDS011;276;48.392;9.950;2022-12-18T03:32:15;42.50;;;29.50;;
579;SDS011;276;48.392;9.950;2022-12-18T03:34:45;42.03;;;29.93;;
579;SDS011;276;48.392;9.950;2022-12-18T03:37:14;39.70;;;30.23;;
579;SDS011;276;48.392;9.950;2022-12-18T03:39:39;45.57;;;29.07;;
579;SDS011;276;48.392;9.950;2022-12-18T03:48:06;44.13;;;29.33;;
579;SDS011;276;48.392;9.950;2022-12-18T03:50:44;43.83;;;29.33;;
579;SDS011;276;48.392;9.950;2022-12-18T03:53:20;38.80;;;25.50;;
579;SDS011;276;48.392;9.950;2022-12-18T03:56:06;42.13;;;28.50;;
579;SDS011;276;48.392;9.950;2022-12-18T03:58:38;45.87;;;29.03;;
579;SDS011;276;48.392;9.950;2022-12-18T04:01:06;44.93;;;30.43;;
579;SDS011;276;48.392;9.950;2022-12-18T04:03:33;51.37;;;31.47;;
579;SDS011;276;48.392;9.950;2022-12-18T04:06:00;42.37;;;29.63;;
579;SDS011;276;48.392;9.950;2022-12-18T04:08:27;45.90;;;31.10;;
579;SDS011;276;48.392;9.950;2022-12-18T04:10:54;47.17;;;32.87;;
579;SDS011;276;48.392;9.950;2022-12-18T04:13:29;50.90;;;33.00;;
579;SDS011;276;48.392;9.950;2022-12-18T04:15:59;44.17;;;30.30;;
579;SDS011;276;48.392;9.950;2022-12-18T04:18:24;45.53;;;31.90;;
579;SDS011;276;48.392;9.950;2022-12-18T04:20:50;46.33;;;31.43;;
579;SDS011;276;48.392;9.950;2022-12-18T04:23:16;46.70;;;32.13;;
579;SDS011;276;48.392;9.950;2022-12-18T04:25:41;51.90;;;30.97;;
579;SDS011;276;48.392;9.950;2022-12-18T04:28:07;50.50;;;29.27;;
579;SDS011;276;48.392;9.950;2022-12-18T04:30:32;42.23;;;29.93;;
579;SDS011;276;48.392;9.950;2022-12-18T04:32:58;48.87;;;28.97;;
579;SDS011;276;48.392;9.950;2022-12-18T04:35:24;44.53;;;29.17;;
579;SDS011;276;48.392;9.950;2022-12-18T04:37:50;46.30;;;30.77;;
579;SDS011;276;48.392;9.950;2022-12-18T04:40:17;44.00;;;29.17;;
579;SDS011;276;48.392;9.950;2022-12-18T04:42:43;47.17;;;33.50;;
579;SDS011;276;48.392;9.950;2022-12-18T04:45:09;52.37;;;32.83;;
579;SDS011;276;48.392;9.950;2022-12-18T04:47:34;60.40;;;36.57;;
579;SDS011;276;48.392;9.950;2022-12-18T04:50:03;51.67;;;34.00;;
579;SDS011;276;48.392;9.950;2022-12-18T04:52:29;46.37;;;30.50;;
579;SDS011;276;48.392;9.950;2022-12-18T04:54:58;52.77;;;37.13;;
579;SDS011;276;48.392;9.950;2022-12-18T04:57:23;49.53;;;34.47;;
579;SDS011;276;48.392;9.950;2022-12-18T04:59:49;53.73;;;33.80;;
579;SDS011;276;48.392;9.950;2022-12-18T05:02:17;49.93;;;34.20;;
579;SDS011;276;48.392;9.950;2022-12-18T05:04:42;53.77;;;34.67;;
579;SDS011;276;48.392;9.950;2022-12-18T05:07:10;49.10;;;31.70;;
579;SDS011;276;48.392;9.950;2022-12-18T05:09:38;52.93;;;32.77;;
579;SDS011;276;48.392;9.950;2022-12-18T05:12:06;53.10;;;32.27;;
579;SDS011;276;48.392;9.950;2022-12-18T05:14:34;51.90;;;33.43;;
579;SDS011;276;48.392;9.950;2022-12-18T05:16:59;46.23;;;31.27;;
579;SDS011;276;48.392;9.950;2022-12-18T05:19:25;47.00;;;32.53;;
579;SDS011;276;48.392;9.950;2022-12-18T05:21:53;49.30;;;33.77;;
579;SDS011;276;48.392;9.950;2022-12-18T05:24:18;54.27;;;32.70;;
579;SDS011;276;48.392;9.950;2022-12-18T05:26:44;55.30;;;33.50;;
579;SDS011;276;48.392;9.950;2022-12-18T05:29:09;61.30;;;36.10;;
579;SDS011;276;48.392;9.950;2022-12-18T05:31:37;49.80;;;31.77;;
579;SDS011;276;48.392;9.950;2022-12-18T05:34:03;48.57;;;33.07;;
579;SDS011;276;48.392;9.950;2022-12-18T05:36:31;56.43;;;34.73;;
579;SDS011;276;48.392;9.950;2022-12-18T05:38:59;48.47;;;33.73;;
579;SDS011;276;48.392;9.950;2022-12-18T05:41:25;39.27;;;28.27;;
579;SDS011;276;48.392;9.950;2022-12-18T05:43:51;54.03;;;33.47;;
579;SDS011;276;48.392;9.950;2022-12-18T05:46:19;48.50;;;32.83;;
579;SDS011;276;48.392;9.950;2022-12-18T05:48:49;49.53;;;31.03;;
579;SDS011;276;48.392;9.950;2022-12-18T05:51:16;46.93;;;31.97;;
579;SDS011;276;48.392;9.950;2022-12-18T05:53:44;46.50;;;30.23;;
579;SDS011;276;48.392;9.950;2022-12-18T05:56:16;52.40;;;31.93;;
579;SDS011;276;48.392;9.950;2022-12-18T05:58:44;52.97;;;30.43;;
579;SDS011;276;48.392;9.950;2022-12-18T06:01:12;59.10;;;34.50;;
579;SDS011;276;48.392;9.950;2022-12-18T06:03:41;52.27;;;33.30;;
579;SDS011;276;48.392;9.950;2022-12-18T06:06:14;55.03;;;34.10;;
579;SDS011;276;48.392;9.950;2022-12-18T06:08:44;49.63;;;29.80;;
579;SDS011;276;48.392;9.950;2022-12-18T06:11:10;46.60;;;32.60;;
579;SDS011;276;48.392;9.950;2022-12-18T06:13:38;58.33;;;34.40;;
579;SDS011;276;48.392;9.950;2022-12-18T06:16:07;53.63;;;33.63;;
579;SDS011;276;48.392;9.950;2022-12-18T06:18:33;51.10;;;33.03;;
579;SDS011;276;48.392;9.950;2022-12-18T06:21:01;51.93;;;32.53;;
579;SDS011;276;48.392;9.950;2022-12-18T06:23:27;49.63;;;34.43;;
579;SDS011;276;48.392;9.950;2022-12-18T06:25:53;53.97;;;33.50;;
579;SDS011;276;48.392;9.950;2022-12-18T06:28:21;54.93;;;34.00;;
579;SDS011;276;48.392;9.950;2022-12-18T06:30:49;53.83;;;32.67;;
579;SDS011;276;48.392;9.950;2022-12-18T06:33:17;62.93;;;33.87;;
579;SDS011;276;48.392;9.950;2022-12-18T06:35:43;56.50;;;35.70;;
579;SDS011;276;48.392;9.950;2022-12-18T06:38:09;51.03;;;31.80;;
579;SDS011;276;48.392;9.950;2022-12-18T06:40:37;51.90;;;33.90;;
579;SDS011;276;48.392;9.950;2022-12-18T06:43:04;53.00;;;30.87;;
579;SDS011;276;48.392;9.950;2022-12-18T06:45:32;50.57;;;33.10;;
579;SDS011;276;48.392;9.950;2022-12-18T06:48:00;51.43;;;33.23;;
579;SDS011;276;48.392;9.950;2022-12-18T06:50:28;53.53;;;34.63;;
579;SDS011;276;48.392;9.950;2022-12-18T06:52:54;61.67;;;36.80;;
579;SDS011;276;48.392;9.950;2022-12-18T06:55:19;59.13;;;36.73;;
579;SDS011;276;48.392;9.950;2022-12-18T06:57:47;57.63;;;34.57;;
579;SDS011;276;48.392;9.950;2022-12-18T07:00:18;54.20;;;31.60;;
579;SDS011;276;48.392;9.950;2022-12-18T07:02:43;53.13;;;32.93;;
579;SDS011;276;48.392;9.950;2022-12-18T07:05:09;53.97;;;34.93;;
579;SDS011;276;48.392;9.950;2022-12-18T07:07:42;49.93;;;32.40;;
579;SDS011;276;48.392;9.950;2022-12-18T07:10:07;52.07;;;33.30;;
579;SDS011;276;48.392;9.950;2022-12-18T07:12:33;55.67;;;32.33;;
579;SDS011;276;48.392;9.950;2022-12-18T07:14:59;56.50;;;34.03;;
579;SDS011;276;48.392;9.950;2022-12-18T07:17:27;53.77;;;33.97;;
579;SDS011;276;48.392;9.950;2022-12-18T07:19:53;54.60;;;32.03;;
579;SDS011;276;48.392;9.950;2022-12-18T07:22:18;51.70;;;32.47;;
579;SDS011;276;48.392;9.950;2022-12-18T07:24:44;50.83;;;30.33;;
579;SDS011;276;48.392;9.950;2022-12-18T07:27:09;54.37;;;33.47;;
579;SDS011;276;48.392;9.950;2022-12-18T07:29:38;51.73;;;30.93;;
579;SDS011;276;48.392;9.950;2022-12-18T07:32:06;55.13;;;32.57;;
579;SDS011;276;48.392;9.950;2022-12-18T07:34:32;51.10;;;31.50;;
579;SDS011;276;48.392;9.950;2022-12-18T07:37:00;51.93;;;33.70;;
579;SDS011;276;48.392;9.950;2022-12-18T07:39:26;51.63;;;31.93;;
579;SDS011;276;48.392;9.950;2022-12-18T07:41:54;57.83;;;34.60;;
579;SDS011;276;48.392;9.950;2022-12-18T07:44:38;58.60;;;34.37;;
579;SDS011;276;48.392;9.950;2022-12-18T07:47:04;51.67;;;33.13;;
579;SDS011;276;48.392;9.950;2022-12-18T07:49:32;49.63;;;32.80;;
579;SDS011;276;48.392;9.950;2022-12-18T07:51:59;50.40;;;32.23;;
579;SDS011;276;48.392;9.950;2022-12-18T07:54:26;54.70;;;38.17;;
579;SDS011;276;48.392;9.950;2022-12-18T07:56:52;52.87;;;37.97;;
579;SDS011;276;48.392;9.950;2022-12-18T07:59:20;61.60;;;42.47;;
579;SDS011;276;48.392;9.950;2022-12-18T08:01:45;53.10;;;34.33;;
579;SDS011;276;48.392;9.950;2022-12-18T08:04:11;46.03;;;29.30;;
579;SDS011;276;48.392;9.950;2022-12-18T08:06:38;51.27;;;33.37;;
579;SDS011;276;48.392;9.950;2022-12-18T08:09:07;52.50;;;32.13;;
579;SDS011;276;48.392;9.950;2022-12-18T08:11:35;52.67;;;32.83;;
579;SDS011;276;48.392;9.950;2022-12-18T08:14:01;49.00;;;30.83;;
579;SDS011;276;48.392;9.950;2022-12-18T08:16:26;55.10;;;33.37;;
579;SDS011;276;48.392;9.950;2022-12-18T08:18:52;56.93;;;34.07;;
579;SDS011;276;48.392;9.950;2022-12-18T08:21:24;55.47;;;33.70;;
579;SDS011;276;48.392;9.950;2022-12-18T08:23:55;58.50;;;34.40;;
579;SDS011;276;48.392;9.950;2022-12-18T08:26:22;55.30;;;33.60;;
579;SDS011;276;48.392;9.950;2022-12-18T08:28:48;45.23;;;29.20;;
579;SDS011;276;48.392;9.950;2022-12-18T08:31:18;43.13;;;28.23;;
579;SDS011;276;48.392;9.950;2022-12-18T08:33:44;47.07;;;29.10;;
579;SDS011;276;48.392;9.950;2022-12-18T08:36:10;46.30;;;29.27;;
579;SDS011;276;48.392;9.950;2022-12-18T08:38:38;46.73;;;30.33;;
579;SDS011;276;48.392;9.950;2022-12-18T08:41:07;52.27;;;33.83;;
579;SDS011;276;48.392;9.950;2022-12-18T08:43:37;58.67;;;37.67;;
579;SDS011;276;48.392;9.950;2022-12-18T08:46:22;58.40;;;35.37;;
579;SDS011;276;48.392;9.950;2022-12-18T08:48:53;50.17;;;33.23;;
579;SDS011;276;48.392;9.950;2022-12-18T08:51:21;48.50;;;33.77;;
579;SDS011;276;48.392;9.950;2022-12-18T08:53:47;52.43;;;33.03;;
579;SDS011;276;48.392;9.950;2022-12-18T08:56:13;51.70;;;32.40;;
579;SDS011;276;48.392;9.950;2022-12-18T08:58:39;52.63;;;31.53;;
579;SDS011;276;48.392;9.950;2022-12-18T09:01:06;44.90;;;28.90;;
579;SDS011;276;48.392;9.950;2022-12-18T09:03:34;45.73;;;29.40;;
579;SDS011;276;48.392;9.950;2022-12-18T09:06:00;54.60;;;33.20;;
579;SDS011;276;48.392;9.950;2022-12-18T09:08:28;51.93;;;32.40;;
579;SDS011;276;48.392;9.950;2022-12-18T09:10:54;51.10;;;33.00;;
579;SDS011;276;48.392;9.950;2022-12-18T09:13:20;40.50;;;26.50;;
579;SDS011;276;48.392;9.950;2022-12-18T09:15:50;52.73;;;31.43;;
579;SDS011;276;48.392;9.950;2022-12-18T09:18:17;47.13;;;29.83;;
579;SDS011;276;48.392;9.950;2022-12-18T09:20:44;41.83;;;26.23;;
579;SDS011;276;48.392;9.950;2022-12-18T09:23:13;50.10;;;32.43;;
579;SDS011;276;48.392;9.950;2022-12-18T09:25:41;43.73;;;28.67;;
579;SDS011;276;48.392;9.950;2022-12-18T09:28:10;41.87;;;27.50;;
579;SDS011;276;48.392;9.950;2022-12-18T09:30:42;43.10;;;26.63;;
579;SDS011;276;48.392;9.950;2022-12-18T09:33:12;46.03;;;29.30;;
579;SDS011;276;48.392;9.950;2022-12-18T09:35:39;50.47;;;32.17;;
579;SDS011;276;48.392;9.950;2022-12-18T09:38:05;46.93;;;33.40;;
579;SDS011;276;48.392;9.950;2022-12-18T09:40:36;49.50;;;33.57;;
579;SDS011;276;48.392;9.950;2022-12-18T09:43:06;52.83;;;32.80;;
579;SDS011;276;48.392;9.950;2022-12-18T09:46:16;38.47;;;28.77;;
579;SDS011;276;48.392;9.950;2022-12-18T09:48:46;48.27;;;27.00;;
579;SDS011;276;48.392;9.950;2022-12-18T09:51:23;39.80;;;27.77;;
579;SDS011;276;48.392;9.950;2022-12-18T09:53:58;36.00;;;24.87;;
579;SDS011;276;48.392;9.950;2022-12-18T09:56:31;38.70;;;27.27;;
579;SDS011;276;48.392;9.950;2022-12-18T09:59:05;44.00;;;29.30;;
579;SDS011;276;48.392;9.950;2022-12-18T10:01:31;43.90;;;26.83;;
579;SDS011;276;48.392;9.950;2022-12-18T10:03:58;37.13;;;27.10;;
579;SDS011;276;48.392;9.950;2022-12-18T10:06:44;39.90;;;26.57;;
579;SDS011;276;48.392;9.950;2022-12-18T10:09:29;36.03;;;25.00;;
579;SDS011;276;48.392;9.950;2022-12-18T10:12:07;36.40;;;26.93;;
579;SDS011;276;48.392;9.950;2022-12-18T10:28:13;39.00;;;26.43;;
579;SDS011;276;48.392;9.950;2022-12-18T10:30:42;38.87;;;27.57;;
579;SDS011;276;48.392;9.950;2022-12-18T10:33:16;40.00;;;27.80;;
579;SDS011;276;48.392;9.950;2022-12-18T10:35:44;35.73;;;24.23;;
579;SDS011;276;48.392;9.950;2022-12-18T10:40:53;37.60;;;24.83;;
579;SDS011;276;48.392;9.950;2022-12-18T10:48:52;38.63;;;25.80;;
579;SDS011;276;48.392;9.950;2022-12-18T10:53:50;43.77;;;28.50;;
579;SDS011;276;48.392;9.950;2022-12-18T10:56:20;41.33;;;28.83;;
579;SDS011;276;48.392;9.950;2022-12-18T10:59:04;40.47;;;27.17;;
579;SDS011;276;48.392;9.950;2022-12-18T11:01:51;41.73;;;28.13;;
579;SDS011;276;48.392;9.950;2022-12-18T11:04:30;41.90;;;27.60;;
579;SDS011;276;48.392;9.950;2022-12-18T11:07:00;41.33;;;28.07;;
579;SDS011;276;48.392;9.950;2022-12-18T11:09:31;47.70;;;31.47;;
579;SDS011;276;48.392;9.950;2022-12-18T11:12:00;37.43;;;26.70;;
579;SDS011;276;48.392;9.950;2022-12-18T11:14:42;36.23;;;26.47;;
579;SDS011;276;48.392;9.950;2022-12-18T11:17:26;36.67;;;25.23;;
579;SDS011;276;48.392;9.950;2022-12-18T11:19:57;36.40;;;26.57;;
579;SDS011;276;48.392;9.950;2022-12-18T11:22:43;38.10;;;25.17;;
579;SDS011;276;48.392;9.950;2022-12-18T11:25:30;42.70;;;27.23;;
579;SDS011;276;48.392;9.950;2022-12-18T11:27:58;40.03;;;26.43;;
579;SDS011;276;48.392;9.950;2022-12-18T11:30:27;40.07;;;26.83;;
579;SDS011;276;48.392;9.950;2022-12-18T11:33:16;34.20;;;24.90;;
579;SDS011;276;48.392;9.950;2022-12-18T11:35:48;32.90;;;23.73;;
579;SDS011;276;48.392;9.950;2022-12-18T11:38:20;29.23;;;22.23;;
579;SDS011;276;48.392;9.950;2022-12-18T11:41:04;31.07;;;22.67;;
579;SDS011;276;48.392;9.950;2022-12-18T11:43:38;34.20;;;23.67;;
579;SDS011;276;48.392;9.950;2022-12-18T11:46:18;27.17;;;22.13;;
579;SDS011;276;48.392;9.950;2022-12-18T11:49:07;28.97;;;20.30;;
579;SDS011;276;48.392;9.950;2022-12-18T11:51:50;29.83;;;22.63;;
579;SDS011;276;48.392;9.950;2022-12-18T11:54:23;30.43;;;21.33;;
579;SDS011;276;48.392;9.950;2022-12-18T12:07:33;29.60;;;22.07;;
579;SDS011;276;48.392;9.950;2022-12-18T12:21:32;30.40;;;22.60;;
579;SDS011;276;48.392;9.950;2022-12-18T12:27:03;34.07;;;24.43;;
579;SDS011;276;48.392;9.950;2022-12-18T12:29:49;34.30;;;21.90;;
579;SDS011;276;48.392;9.950;2022-12-18T12:40:11;30.93;;;22.27;;
579;SDS011;276;48.392;9.950;2022-12-18T12:51:00;32.60;;;23.90;;
579;SDS011;276;48.392;9.950;2022-12-18T12:53:30;31.20;;;22.23;;
579;SDS011;276;48.392;9.950;2022-12-18T12:56:01;28.13;;;20.33;;
579;SDS011;276;48.392;9.950;2022-12-18T12:58:38;27.17;;;20.90;;
579;SDS011;276;48.392;9.950;2022-12-18T13:06:39;34.93;;;24.50;;
579;SDS011;276;48.392;9.950;2022-12-18T13:09:13;32.53;;;23.17;;
579;SDS011;276;48.392;9.950;2022-12-18T13:11:47;32.23;;;23.63;;
579;SDS011;276;48.392;9.950;2022-12-18T13:14:36;31.07;;;21.20;;
579;SDS011;276;48.392;9.950;2022-12-18T13:17:13;27.33;;;21.10;;
579;SDS011;276;48.392;9.950;2022-12-18T13:22:44;31.63;;;22.17;;
579;SDS011;276;48.392;9.950;2022-12-18T13:40:56;29.93;;;21.50;;
579;SDS011;276;48.392;9.950;2022-12-18T13:43:30;39.97;;;23.40;;
579;SDS011;276;48.392;9.950;2022-12-18T13:51:25;30.20;;;22.57;;
579;SDS011;276;48.392;9.950;2022-12-18T13:56:30;31.77;;;23.57;;
579;SDS011;276;48.392;9.950;2022-12-18T14:04:18;31.40;;;20.97;;
579;SDS011;276;48.392;9.950;2022-12-18T14:07:04;27.60;;;19.90;;
579;SDS011;276;48.392;9.950;2022-12-18T14:09:37;27.20;;;20.73;;
579;SDS011;276;48.392;9.950;2022-12-18T14:12:11;32.20;;;22.00;;
579;SDS011;276;48.392;9.950;2022-12-18T14:15:03;29.63;;;19.37;;
579;SDS011;276;48.392;9.950;2022-12-18T14:17:31;31.20;;;22.53;;
579;SDS011;276;48.392;9.950;2022-12-18T14:19:57;28.93;;;20.20;;
579;SDS011;276;48.392;9.950;2022-12-18T14:22:24;27.13;;;20.60;;
579;SDS011;276;48.392;9.950;2022-12-18T14:27:40;29.87;;;19.97;;
579;SDS011;276;48.392;9.950;2022-12-18T14:33:02;34.13;;;23.17;;
579;SDS011;276;48.392;9.950;2022-12-18T14:35:29;33.77;;;22.43;;
579;SDS011;276;48.392;9.950;2022-12-18T14:38:20;30.53;;;23.00;;
579;SDS011;276;48.392;9.950;2022-12-18T14:40:55;36.80;;;23.83;;
579;SDS011;276;48.392;9.950;2022-12-18T14:43:33;33.90;;;23.07;;
579;SDS011;276;48.392;9.950;2022-12-18T14:46:00;32.70;;;23.50;;
579;SDS011;276;48.392;9.950;2022-12-18T14:48:39;34.07;;;25.73;;
579;SDS011;276;48.392;9.950;2022-12-18T14:53:39;35.03;;;24.17;;
579;SDS011;276;48.392;9.950;2022-12-18T14:59:12;30.60;;;21.10;;
579;SDS011;276;48.392;9.950;2022-12-18T15:01:46;29.13;;;19.93;;
579;SDS011;276;48.392;9.950;2022-12-18T15:04:26;31.70;;;21.30;;
579;SDS011;276;48.392;9.950;2022-12-18T15:09:36;28.50;;;21.73;;
579;SDS011;276;48.392;9.950;2022-12-18T15:12:16;32.37;;;23.27;;
579;SDS011;276;48.392;9.950;2022-12-18T15:15:04;32.53;;;22.67;;
579;SDS011;276;48.392;9.950;2022-12-18T15:17:56;25.97;;;17.43;;
579;SDS011;276;48.392;9.950;2022-12-18T15:20:23;30.30;;;21.30;;
579;SDS011;276;48.392;9.950;2022-12-18T15:22:51;23.77;;;17.93;;
579;SDS011;276;48.392;9.950;2022-12-18T15:25:31;24.10;;;18.60;;
579;SDS011;276;48.392;9.950;2022-12-18T15:28:01;32.70;;;22.40;;
579;SDS011;276;48.392;9.950;2022-12-18T15:30:27;24.90;;;17.80;;
579;SDS011;276;48.392;9.950;2022-12-18T15:33:22;24.70;;;19.27;;
579;SDS011;276;48.392;9.950;2022-12-18T15:35:55;27.93;;;19.43;;
579;SDS011;276;48.392;9.950;2022-12-18T15:38:22;24.23;;;17.00;;
579;SDS011;276;48.392;9.950;2022-12-18T15:40:48;27.90;;;19.50;;
579;SDS011;276;48.392;9.950;2022-12-18T15:43:14;25.70;;;18.90;;
579;SDS011;276;48.392;9.950;2022-12-18T15:45:58;30.43;;;20.80;;
579;SDS011;276;48.392;9.950;2022-12-18T15:48:25;29.53;;;22.20;;
579;SDS011;276;48.392;9.950;2022-12-18T15:50:56;26.73;;;19.77;;
579;SDS011;276;48.392;9.950;2022-12-18T15:53:23;29.20;;;19.83;;
579;SDS011;276;48.392;9.950;2022-12-18T15:55:52;28.07;;;19.43;;
579;SDS011;276;48.392;9.950;2022-12-18T15:58:36;33.77;;;21.87;;
579;SDS011;276;48.392;9.950;2022-12-18T16:01:02;34.00;;;21.17;;
579;SDS011;276;48.392;9.950;2022-12-18T16:03:30;34.13;;;22.80;;
579;SDS011;276;48.392;9.950;2022-12-18T16:05:58;35.00;;;23.20;;
579;SDS011;276;48.392;9.950;2022-12-18T16:08:26;31.20;;;22.37;;
579;SDS011;276;48.392;9.950;2022-12-18T16:10:56;30.67;;;20.80;;
579;SDS011;276;48.392;9.950;2022-12-18T16:13:22;37.10;;;25.13;;
579;SDS011;276;48.392;9.950;2022-12-18T16:15:48;34.47;;;24.10;;
579;SDS011;276;48.392;9.950;2022-12-18T16:18:17;28.90;;;21.37;;
579;SDS011;276;48.392;9.950;2022-12-18T16:20:42;30.47;;;22.37;;
579;SDS011;276;48.392;9.950;2022-12-18T16:23:10;30.30;;;21.90;;
579;SDS011;276;48.392;9.950;2022-12-18T16:25:36;29.40;;;21.23;;
579;SDS011;276;48.392;9.950;2022-12-18T16:28:04;30.33;;;21.30;;
579;SDS011;276;48.392;9.950;2022-12-18T16:30:30;24.73;;;18.90;;
579;SDS011;276;48.392;9.950;2022-12-18T16:32:56;25.10;;;19.07;;
579;SDS011;276;48.392;9.950;2022-12-18T16:35:26;31.40;;;21.67;;
579;SDS011;276;48.392;9.950;2022-12-18T16:37:54;26.27;;;18.73;;
579;SDS011;276;48.392;9.950;2022-12-18T16:40:19;26.23;;;21.47;;
579;SDS011;276;48.392;9.950;2022-12-18T16:42:48;30.40;;;21.20;;
579;SDS011;276;48.392;9.950;2022-12-18T16:45:17;25.60;;;18.03;;
579;SDS011;276;48.392;9.950;2022-12-18T16:47:43;27.03;;;18.37;;
579;SDS011;276;48.392;9.950;2022-12-18T16:50:09;25.90;;;18.37;;
579;SDS011;276;48.392;9.950;2022-12-18T16:52:36;33.23;;;22.07;;
579;SDS011;276;48.392;9.950;2022-12-18T16:55:02;27.20;;;19.27;;
579;SDS011;276;48.392;9.950;2022-12-18T16:57:28;30.47;;;20.23;;
579;SDS011;276;48.392;9.950;2022-12-18T16:59:56;34.90;;;24.10;;
579;SDS011;276;48.392;9.950;2022-12-18T17:02:22;29.67;;;20.63;;
579;SDS011;276;48.392;9.950;2022-12-18T17:04:52;33.03;;;22.07;;
579;SDS011;276;48.392;9.950;2022-12-18T17:07:19;28.93;;;20.83;;
579;SDS011;276;48.392;9.950;2022-12-18T17:09:50;30.17;;;21.60;;
579;SDS011;276;48.392;9.950;2022-12-18T17:12:18;29.47;;;20.33;;
579;SDS011;276;48.392;9.950;2022-12-18T17:14:44;30.17;;;23.00;;
579;SDS011;276;48.392;9.950;2022-12-18T17:17:09;27.60;;;20.90;;
579;SDS011;276;48.392;9.950;2022-12-18T17:19:37;32.50;;;24.10;;
579;SDS011;276;48.392;9.950;2022-12-18T17:22:03;29.70;;;21.73;;
579;SDS011;276;48.392;9.950;2022-12-18T17:24:32;30.47;;;20.17;;
579;SDS011;276;48.392;9.950;2022-12-18T17:26:57;29.07;;;20.03;;
579;SDS011;276;48.392;9.950;2022-12-18T17:29:23;29.03;;;19.43;;
579;SDS011;276;48.392;9.950;2022-12-18T17:31:51;36.43;;;21.03;;
579;SDS011;276;48.392;9.950;2022-12-18T17:34:16;32.70;;;21.63;;
579;SDS011;276;48.392;9.950;2022-12-18T17:36:42;30.20;;;19.93;;
579;SDS011;276;48.392;9.950;2022-12-18T17:39:10;28.00;;;19.67;;
579;SDS011;276;48.392;9.950;2022-12-18T17:41:43;31.33;;;20.20;;
579;SDS011;276;48.392;9.950;2022-12-18T17:44:12;32.67;;;20.37;;
579;SDS011;276;48.392;9.950;2022-12-18T17:46:38;31.10;;;21.50;;
579;SDS011;276;48.392;9.950;2022-12-18T17:49:04;31.90;;;21.60;;
579;SDS011;276;48.392;9.950;2022-12-18T17:51:31;33.80;;;21.67;;
579;SDS011;276;48.392;9.950;2022-12-18T17:53:57;32.37;;;21.20;;
579;SDS011;276;48.392;9.950;2022-12-18T17:56:23;35.83;;;21.97;;
579;SDS011;276;48.392;9.950;2022-12-18T17:58:49;33.07;;;20.97;;
579;SDS011;276;48.392;9.950;2022-12-18T18:01:16;32.60;;;23.40;;
579;SDS011;276;48.392;9.950;2022-12-18T18:03:44;26.97;;;19.50;;
579;SDS011;276;48.392;9.950;2022-12-18T18:06:11;28.07;;;22.27;;